Temp: 6.7°C   Baro: 993.4mb
  Wind: 0.0mph   Dir: SW (223°)
  Rain: 0.2mm (0.0mm/hr)
  Solar: 258W/m2  Hum: 86%
 
Bath Spa Weather Station Historical Data
 
Daily Summary for January 22, 2021 Units:  Metric    English   Both
Daily Weekly Monthly Yearly Custom
  Current: High: Low: Average:
Temperature: 6.6 °C 6.6 °C -1.1 °C 0.6 °C
Dew Point: 5.1 °C 5.1 °C -1.3 °C 0.3 °C
Humidity: 87.6% 96% 87.6% 94%
Wind Speed: 1.6km/h 2.9km/h 0km/h 0.2km/h
Wind Gust: 8km/h 8km/h - -
WindSW - - WNW
Pressure: 993.5 hPa 993.8 hPa 988.4 hPa -
Precipitation: 0.25 mm      
Historical Graphs
 
 
Tabular Data for January 22, 2021
Time Temperature Dew Point Pressure Wind Wind Speed Wind Gust Humidity Rainfall Rate (Hourly) solar
00:04 1.3 °C 0.6 °C 988.7 hPa WNW 2.9 km/h 6.4 km/h 92% 0 mm 0 W/m2
00:09 1.6 °C 0.9 °C 988.4 hPa Calm   4.8 km/h 92% 0 mm 0 W/m2
00:14 1.4 °C 0.8 °C 988.7 hPa Calm   1.6 km/h 92% 0 mm 0 W/m2
00:19 1.3 °C 0.7 °C 988.7 hPa Calm   1.6 km/h 92% 0 mm 0 W/m2
00:24 1.2 °C 0.5 °C 988.7 hPa Calm   1.6 km/h 92% 0 mm 0 W/m2
00:29 1.1 °C 0.3 °C 988.4 hPa Calm   1.6 km/h 92% 0 mm 0 W/m2
00:34 0.9 °C 0.2 °C 988.7 hPa Calm     92% 0 mm 0 W/m2
00:39 0.8 °C 0.2 °C 988.7 hPa Calm     92% 0 mm 0 W/m2
00:44 0.8 °C 0.1 °C 988.7 hPa Calm     92% 0 mm 0 W/m2
00:49 0.7 °C -0.1 °C 988.7 hPa Calm   1.6 km/h 92% 0 mm 0 W/m2
00:54 0.6 °C -0.1 °C 988.7 hPa Calm   1.6 km/h 92.2% 0 mm 0 W/m2
00:59 0.6 °C 0.1 °C 988.7 hPa WNW 1.3 km/h 4.8 km/h 93% 0 mm 0 W/m2
01:04 0.6 °C 0.1 °C 988.7 hPa WNW 2.1 km/h 4.8 km/h 93% 0 mm 0 W/m2
01:09 0.6 °C 0.1 °C 989.1 hPa WNW 2.6 km/h 4.8 km/h 93% 0 mm 0 W/m2
01:14 0.6 °C 0.1 °C 989.1 hPa Calm   4.8 km/h 93% 0 mm 0 W/m2
01:19 0.4 °C -0.1 °C 989.1 hPa Calm     93% 0 mm 0 W/m2
01:24 0.4 °C -0.1 °C 989.1 hPa Calm     93% 0 mm 0 W/m2
01:29 0.3 °C -0.2 °C 989.1 hPa Calm     93% 0 mm 0 W/m2
01:34 0.2 °C -0.3 °C 989.1 hPa Calm     93% 0 mm 0 W/m2
01:39 0.2 °C -0.3 °C 989.1 hPa Calm     93% 0 mm 0 W/m2
01:44 0.2 °C -0.3 °C 989.1 hPa Calm     93% 0 mm 0 W/m2
01:49 0.2 °C -0.3 °C 989.1 hPa Calm     93% 0 mm 0 W/m2
01:54 0.1 °C -0.4 °C 989.1 hPa Calm     93% 0 mm 0 W/m2
01:59 0.1 °C -0.4 °C 989.4 hPa Calm     93% 0 mm 0 W/m2
02:04 0 °C -0.5 °C 989.4 hPa Calm     93% 0 mm 0 W/m2
02:09 -0.1 °C -0.6 °C 989.4 hPa WNW 0.6 km/h 3.2 km/h 93% 0 mm 0 W/m2
02:14 -0.1 °C -0.6 °C 989.4 hPa Calm   1.6 km/h 93% 0 mm 0 W/m2
02:19 0 °C -0.4 °C 989.4 hPa WNW 1.6 km/h 3.2 km/h 93.2% 0 mm 0 W/m2
02:24 0.1 °C -0.3 °C 989.4 hPa WNW 1.4 km/h 3.2 km/h 93.4% 0 mm 0 W/m2
02:29 0.2 °C -0.3 °C 989.4 hPa Calm   1.6 km/h 94% 0 mm 0 W/m2
02:34 0.1 °C -0.3 °C 989.4 hPa Calm     94% 0 mm 0 W/m2
02:39 -0.1 °C -0.5 °C 989.4 hPa Calm     94% 0 mm 0 W/m2
02:44 -0.2 °C -0.6 °C 989.4 hPa Calm     94% 0 mm 0 W/m2
02:49 -0.2 °C -0.6 °C 989.7 hPa Calm   1.6 km/h 94% 0 mm 0 W/m2
02:54 -0.2 °C -0.7 °C 989.7 hPa Calm     94% 0 mm 0 W/m2
02:59 -0.3 °C -0.7 °C 989.7 hPa Calm     94% 0 mm 0 W/m2
03:04 -0.4 °C -0.8 °C 989.7 hPa Calm     94% 0 mm 0 W/m2
03:09 -0.4 °C -0.8 °C 989.7 hPa Calm     94% 0 mm 0 W/m2
03:14 -0.4 °C -0.8 °C 989.7 hPa Calm     94% 0 mm 0 W/m2
03:19 -0.5 °C -0.8 °C 989.7 hPa Calm     94% 0 mm 0 W/m2
03:24 -0.4 °C -0.8 °C 989.7 hPa Calm     94% 0 mm 0 W/m2
03:29 -0.4 °C -0.8 °C 989.7 hPa WNW 1 km/h 3.2 km/h 94% 0 mm 0 W/m2
03:34 -0.5 °C -0.8 °C 989.7 hPa Calm   1.6 km/h 94% 0 mm 0 W/m2
03:39 -0.6 °C -0.9 °C 989.7 hPa Calm     94% 0 mm 0 W/m2
03:44 -0.7 °C -1 °C 990.1 hPa Calm   1.6 km/h 94% 0 mm 0 W/m2
03:49 -0.7 °C -1 °C 990.1 hPa WNW 0.3 km/h 1.6 km/h 94% 0 mm 0 W/m2
03:54 -0.7 °C -1 °C 990.1 hPa Calm     94% 0 mm 0 W/m2
03:59 -0.8 °C -1.1 °C 990.1 hPa Calm     94% 0 mm 0 W/m2
04:04 -0.8 °C -1.1 °C 990.1 hPa Calm     94% 0 mm 0 W/m2
04:09 -0.8 °C -1.1 °C 990.1 hPa Calm     94% 0 mm 0 W/m2
04:14 -0.8 °C -1.1 °C 990.1 hPa Calm     94% 0 mm 0 W/m2
04:19 -0.8 °C -1.1 °C 990.1 hPa Calm     94% 0 mm 0 W/m2
04:24 -0.8 °C -1.1 °C 990.4 hPa Calm     94% 0 mm 0 W/m2
04:29 -0.9 °C -1.2 °C 990.4 hPa Calm     94% 0 mm 0 W/m2
04:34 -0.9 °C -1.2 °C 990.4 hPa Calm     94% 0 mm 0 W/m2
04:39 -0.8 °C -1.1 °C 990.4 hPa Calm     94% 0 mm 0 W/m2
04:44 -0.8 °C -1.1 °C 990.4 hPa Calm     94% 0 mm 0 W/m2
04:49 -0.8 °C -1.2 °C 990.4 hPa WNW 1 km/h 4.8 km/h 94% 0 mm 0 W/m2
04:54 -0.8 °C -1.2 °C 990.4 hPa WNW 0.5 km/h 4.8 km/h 94% 0 mm 0 W/m2
04:59 -0.9 °C -1.2 °C 990.4 hPa WNW 1.4 km/h 4.8 km/h 94% 0 mm 0 W/m2
05:04 -0.9 °C -1.2 °C 990.7 hPa WNW 1 km/h 3.2 km/h 94% 0 mm 0 W/m2
05:09 -0.9 °C -1.3 °C 990.7 hPa WNW 1.1 km/h 3.2 km/h 94% 0 mm 0 W/m2
05:14 -0.9 °C -1.2 °C 990.7 hPa WNW 0.6 km/h 3.2 km/h 94.4% 0 mm 0 W/m2
05:19 -0.9 °C -1.2 °C 990.7 hPa WNW 0.3 km/h 3.2 km/h 95% 0 mm 0 W/m2
05:24 -1 °C -1.2 °C 990.7 hPa Calm     95% 0 mm 0 W/m2
05:29 -0.9 °C -1.2 °C 990.7 hPa Calm     95% 0 mm 0 W/m2
05:34 -0.9 °C -1.1 °C 990.7 hPa Calm     95% 0 mm 0 W/m2
05:39 -0.9 °C -1.2 °C 991.1 hPa Calm     94.8% 0 mm 0 W/m2
05:44 -0.9 °C -1.2 °C 991.1 hPa WNW 0.6 km/h 3.2 km/h 94.8% 0 mm 0 W/m2
05:49 -0.8 °C -1.1 °C 991.1 hPa WNW 0.6 km/h 3.2 km/h 95% 0 mm 0 W/m2
05:54 -0.8 °C -1.1 °C 991.1 hPa Calm     95% 0 mm 0 W/m2
05:59 -0.9 °C -1.1 °C 991.1 hPa Calm     95% 0 mm 0 W/m2
06:04 -1 °C -1.2 °C 991.4 hPa Calm     95% 0 mm 0 W/m2
06:09 -1.1 °C -1.3 °C 991.4 hPa WNW 0.6 km/h 3.2 km/h 95% 0 mm 0 W/m2
06:14 -1 °C -1.2 °C 991.4 hPa WNW 1.3 km/h 3.2 km/h 95% 0 mm 0 W/m2
06:19 -0.9 °C -1.1 °C 991.4 hPa Calm   3.2 km/h 95% 0 mm 0 W/m2
06:24 -0.8 °C -1 °C 991.4 hPa Calm     95% 0 mm 0 W/m2
06:29 -0.9 °C -1.1 °C 991.4 hPa WNW 2.7 km/h 4.8 km/h 95% 0 mm 0 W/m2
06:34 -0.8 °C -0.9 °C 991.4 hPa WNW 0.6 km/h 4.8 km/h 95% 0 mm 0 W/m2
06:39 -0.7 °C -0.9 °C 991.8 hPa Calm     95% 0 mm 0 W/m2
06:44 -0.7 °C -0.9 °C 991.8 hPa WNW 0.8 km/h 4.8 km/h 95% 0 mm 0 W/m2
06:49 -0.7 °C -0.8 °C 991.8 hPa Calm   4.8 km/h 95% 0 mm 0 W/m2
06:54 -0.7 °C -0.9 °C 991.8 hPa Calm     95% 0 mm 0 W/m2
06:59 -0.8 °C -1 °C 991.8 hPa Calm     95% 0 mm 0 W/m2
07:04 -0.8 °C -1.1 °C 991.8 hPa Calm     95% 0 mm 0 W/m2
07:09 -0.9 °C -1.1 °C 991.8 hPa Calm   1.6 km/h 95% 0 mm 0 W/m2
07:14 -1 °C -1.2 °C 991.8 hPa Calm     95% 0 mm 0 W/m2
07:18 -1 °C -1.2 °C 991.8 hPa Calm     95% 0 mm 0 W/m2
07:24 -1 °C -1.2 °C 991.8 hPa Calm   1.6 km/h 95% 0 mm 0 W/m2
07:29 -1.1 °C -1.2 °C 991.8 hPa Calm     95% 0 mm 0 W/m2
07:34 -1.1 °C -1.3 °C 992.1 hPa Calm     95% 0 mm 0 W/m2
07:39 -1 °C -1.2 °C 992.1 hPa Calm   1.6 km/h 95% 0 mm 0 W/m2
07:44 -1 °C -1.2 °C 992.1 hPa Calm   1.6 km/h 95% 0 mm 0 W/m2
07:49 -0.9 °C -1.2 °C 992.1 hPa Calm     95% 0 mm 0 W/m2
07:54 -1 °C -1.2 °C 992.1 hPa Calm     95% 0 mm 0 W/m2
07:59 -0.9 °C -1.1 °C 992.4 hPa Calm     95% 0 mm 0 W/m2
08:04 -0.9 °C -1.1 °C 992.4 hPa Calm     95% 0 mm 0 W/m2
08:09 -0.9 °C -1.1 °C 992.4 hPa Calm   1.6 km/h 95% 0 mm 0 W/m2
08:14 -0.9 °C -1.1 °C 992.4 hPa Calm     95% 0 mm 5 W/m2
08:19 -0.8 °C -1.1 °C 992.4 hPa WNW 0.6 km/h 3.2 km/h 95% 0 mm 7 W/m2
08:24 -0.8 °C -1 °C 992.4 hPa WNW 1.8 km/h 3.2 km/h 95% 0 mm 11 W/m2
08:29 -0.7 °C -0.8 °C 992.4 hPa WNW 0.8 km/h 3.2 km/h 95% 0 mm 14 W/m2
08:34 -0.5 °C -0.7 °C 992.4 hPa WNW 0.3 km/h 3.2 km/h 95% 0 mm 16 W/m2
08:39 -0.4 °C -0.7 °C 992.4 hPa Calm   1.6 km/h 95% 0 mm 18 W/m2
08:44 -0.4 °C -0.6 °C 992.8 hPa Calm   1.6 km/h 95% 0 mm 19 W/m2
08:49 -0.3 °C -0.6 °C 992.8 hPa Calm     95% 0 mm 21 W/m2
08:54 -0.2 °C -0.4 °C 992.8 hPa Calm   1.6 km/h 95% 0 mm 23 W/m2
08:59 -0.1 °C -0.3 °C 992.8 hPa Calm     95.2% 0 mm 25 W/m2
09:04 0 °C -0.1 °C 993.1 hPa Calm     96% 0 mm 26 W/m2
09:09 0 °C -0.2 °C 993.1 hPa Calm     95% 0 mm 26 W/m2
09:14 0.1 °C 0 °C 993.1 hPa Calm     95.6% 0 mm 28 W/m2
09:19 0.2 °C 0.1 °C 993.1 hPa WNW 1 km/h 3.2 km/h 96% 0 mm 30 W/m2
09:24 0.4 °C 0.3 °C 993.1 hPa Calm     96% 0 mm 32 W/m2
09:29 0.7 °C 0.6 °C 993.1 hPa Calm     96% 0.25 mm 35 W/m2
09:34 0.7 °C 0.6 °C 993.1 hPa Calm     96% 0.25 mm 40 W/m2
09:39 0.8 °C 0.8 °C 993.5 hPa Calm     96% 0.25 mm 47 W/m2
09:44 1.3 °C 1.2 °C 993.5 hPa Calm     96% 0.25 mm 56 W/m2
09:49 1.6 °C 1.5 °C 993.5 hPa Calm     96% 0.25 mm 65 W/m2
09:54 1.7 °C 1.6 °C 993.5 hPa Calm     96% 0.25 mm 72 W/m2
09:59 1.9 °C 1.8 °C 993.5 hPa Calm     96% 0.25 mm 84 W/m2
10:04 2 °C 1.9 °C 993.5 hPa Calm     96% 0.25 mm 93 W/m2
10:09 2.6 °C 2.5 °C 993.5 hPa Calm     96% 0.25 mm 102 W/m2
10:14 3.2 °C 3.2 °C 993.5 hPa Calm     96% 0.25 mm 113 W/m2
10:19 3.4 °C 3.3 °C 993.5 hPa Calm     96% 0.25 mm 128 W/m2
10:24 3.3 °C 3.2 °C 993.5 hPa Calm     96% 0.25 mm 174 W/m2
10:29 3.2 °C 3.2 °C 993.8 hPa Calm     96% 0.25 mm 179 W/m2
10:34 3.3 °C 3.2 °C 993.8 hPa Calm     96% 0 mm 107 W/m2
10:39 3.3 °C 3.2 °C 993.8 hPa Calm     96% 0 mm 98 W/m2
10:44 3.2 °C 3.1 °C 993.8 hPa Calm     95.4% 0 mm 98 W/m2
10:49 3.3 °C 3.1 °C 993.8 hPa Calm   1.6 km/h 95% 0 mm 113 W/m2
10:54 3.5 °C 3.3 °C 993.8 hPa Calm   1.6 km/h 95% 0 mm 132 W/m2
10:59 3.7 °C 3.4 °C 993.8 hPa Calm   1.6 km/h 95% 0 mm 132 W/m2
11:04 3.7 °C 3.5 °C 993.5 hPa Calm   1.6 km/h 95% 0 mm 113 W/m2
11:09 3.6 °C 3.4 °C 993.5 hPa Calm     95% 0 mm 123 W/m2
11:14 3.7 °C 3.5 °C 993.8 hPa Calm     95% 0 mm 125 W/m2
11:19 3.7 °C 3.5 °C 993.8 hPa Calm     95% 0 mm 135 W/m2
11:24 3.7 °C 3.5 °C 993.8 hPa Calm     95% 0 mm 132 W/m2
11:29 3.7 °C 3.4 °C 993.8 hPa Calm     94.6% 0 mm 142 W/m2
11:34 3.8 °C 3.5 °C 993.8 hPa Calm     94.8% 0 mm 167 W/m2
11:39 3.9 °C 3.6 °C 993.8 hPa Calm     94% 0 mm 188 W/m2
11:44 4.2 °C 3.7 °C 993.8 hPa Calm     94% 0 mm 185 W/m2
11:49 4.7 °C 4.3 °C 993.8 hPa Calm     94% 0 mm 156 W/m2
11:54 5.1 °C 4.7 °C 993.8 hPa Calm     94% 0 mm 142 W/m2
11:59 5.2 °C 4.7 °C 993.8 hPa WNW 0.3 km/h 1.6 km/h 93% 0 mm 160 W/m2
12:04 5.3 °C 4.7 °C 993.8 hPa Calm   1.6 km/h 92.4% 0 mm 279 W/m2
12:09 5.7 °C 4.9 °C 993.5 hPa Calm     91.6% 0 mm 244 W/m2
12:14 5.8 °C 4.8 °C 993.5 hPa WNW 1 km/h 3.2 km/h 90.2% 0 mm 359 W/m2
12:19 5.9 °C 4.8 °C 993.5 hPa WNW 0.6 km/h 3.2 km/h 89% 0 mm 297 W/m2
12:24 6.2 °C 4.9 °C 993.5 hPa WNW 0.6 km/h 4.8 km/h 88.2% 0 mm 267 W/m2
12:29 6.6 °C 5.1 °C 993.5 hPa SW 1.6 km/h 8 km/h 87.6% 0 mm 269 W/m2
Bath Spa Weather
Compliments of Weather Underground - 2 mb